Las Torres de Cotillas, Spain
Current Conditions -  °F | °C
As of 8:00 PM on Friday 24 Oct 2014 (Local Time) from LELC Reporting Station
Clear Clear  
Wind Chill: 70°   Ceiling: Unl
Heat Index: 70°   Visibility: 6mi
Dew Point: 64°   Wind: 2mph
Humidity: 83%   Direction: NA
Pressure: 30.03"   Gusts: NA
Location:  38.03°N, 1.24°W
Report Text: LELC 241800Z VRB02KT CAVOK 21/18 Q1017 NOSIG
Loading
Personal Weather Stations






























Interactive Weather Map New forecast layout! Learn more

10-Day Weather Forecast

Advertisements
Track Severe Weather on mobile